Time;durP1;ratioP1;P1;durP2;ratioP2;P2;SDS_P1;SDS_P2;PMS_P1;PMS_P2;Temp;Humidity;BMP_temperature;BMP_pressure;BME280_temperature;BME280_humidity;BME280_pressure;Samples;Min_cycle;Max_cycle;Signal;HPM_P1;HPM_P2
2022/11/11 00:00:17;;;;;;;87.30;51.80;;;;;;;9.25;100.00;100484.47;5089740;28;20259;-58
2022/11/11 00:02:44;;;;;;;85.23;49.70;;;;;;;9.28;100.00;100484.44;5089468;28;20585;-54
2022/11/11 00:05:11;;;;;;;90.87;49.17;;;;;;;9.27;100.00;100477.53;5089615;28;20597;-54
2022/11/11 00:07:39;;;;;;;86.67;48.90;;;;;;;9.23;100.00;100473.25;5089815;28;20585;-54
2022/11/11 00:10:07;;;;;;;79.40;48.17;;;;;;;9.30;100.00;100482.69;5089580;28;20602;-54
2022/11/11 00:12:35;;;;;;;82.93;49.27;;;;;;;9.17;100.00;100475.88;5089531;28;20231;-58
2022/11/11 00:15:01;;;;;;;83.97;49.53;;;;;;;9.26;100.00;100480.97;5089590;28;20191;-58
2022/11/11 00:25:43;;;;;;;81.37;47.90;;;;;;;9.27;100.00;100476.66;5089651;28;20205;-58
2022/11/11 00:28:11;;;;;;;84.63;48.43;;;;;;;9.34;100.00;100474.03;5089525;28;20210;-57
2022/11/11 00:30:38;;;;;;;87.97;49.43;;;;;;;9.38;100.00;100475.69;5089481;28;20226;-58
2022/11/11 00:33:05;;;;;;;80.13;48.10;;;;;;;9.34;100.00;100479.22;5089678;28;20630;-59
2022/11/11 00:40:59;;;;;;;86.77;48.67;;;;;;;9.43;100.00;100479.13;5089280;28;20255;-58
2022/11/11 00:43:26;;;;;;;79.87;47.97;;;;;;;9.28;100.00;100479.25;5089412;28;20217;-58
2022/11/11 00:45:53;;;;;;;81.10;48.43;;;;;;;9.16;100.00;100487.09;5089351;28;20209;-61
2022/11/11 00:51:04;;;;;;;78.70;47.50;;;;;;;9.03;100.00;100469.94;5067860;28;20310;-55
2022/11/11 00:53:34;;;;;;;86.33;47.20;;;;;;;8.94;100.00;100470.88;5089133;28;20191;-55
2022/11/11 00:56:01;;;;;;;86.20;48.97;;;;;;;8.96;100.00;100463.09;5089343;28;20199;-54
2022/11/11 00:58:28;;;;;;;83.73;48.50;;;;;;;9.00;100.00;100460.47;5089422;28;20222;-54
2022/11/11 01:00:55;;;;;;;78.13;47.57;;;;;;;9.06;100.00;100472.50;5089008;28;20288;-55
2022/11/11 01:03:23;;;;;;;83.97;48.37;;;;;;;9.10;100.00;100467.31;5089227;28;20260;-53
2022/11/11 01:05:50;;;;;;;78.70;47.77;;;;;;;9.07;100.00;100463.88;5089316;28;20275;-53
2022/11/11 01:08:17;;;;;;;82.30;47.87;;;;;;;9.05;100.00;100460.44;5073953;28;20196;-54
2022/11/11 01:10:47;;;;;;;80.60;48.30;;;;;;;9.05;100.00;100460.44;5068903;28;20255;-54
2022/11/11 01:13:17;;;;;;;94.80;47.67;;;;;;;9.12;100.00;100456.94;5068769;28;20193;-56
2022/11/11 01:15:45;;;;;;;80.13;46.83;;;;;;;9.18;100.00;100453.44;5071330;28;20719;-54
2022/11/11 01:18:15;;;;;;;80.03;45.83;;;;;;;9.22;100.00;100448.22;5072532;28;20224;-54
2022/11/11 01:20:43;;;;;;;81.63;47.57;;;;;;;9.13;100.00;100455.22;5072471;28;20582;-54
2022/11/11 01:23:12;;;;;;;80.00;47.87;;;;;;;9.06;100.00;100447.47;5072431;28;20222;-58
2022/11/11 01:25:41;;;;;;;85.50;47.13;;;;;;;9.01;100.00;100444.09;5072730;28;20242;-58
2022/11/11 01:28:09;;;;;;;78.63;47.77;;;;;;;9.08;100.00;100442.28;5072175;28;20635;-58
2022/11/11 01:30:37;;;;;;;85.20;47.63;;;;;;;9.16;100.00;100445.66;5071975;28;20226;-58
2022/11/11 01:33:04;;;;;;;78.80;47.53;;;;;;;9.09;100.00;100444.88;5072106;28;20196;-58
2022/11/11 01:35:31;;;;;;;80.47;47.27;;;;;;;9.04;100.00;100446.63;5072203;28;20588;-59
2022/11/11 01:37:58;;;;;;;83.63;48.00;;;;;;;9.03;100.00;100436.28;5072078;28;20204;-59
2022/11/11 01:40:26;;;;;;;80.83;47.43;;;;;;;9.00;100.00;100436.31;5072236;28;20394;-58
2022/11/11 01:42:54;;;;;;;82.53;46.90;;;;;;;9.00;100.00;100433.72;5072076;28;20208;-55
2022/11/11 01:45:53;;;;;;;73.40;45.10;;;;;;;9.02;100.00;100432.00;5072051;28;20218;-55
2022/11/11 01:51:17;;;;;;;71.37;44.67;;;;;;;8.88;100.00;100411.38;5071585;28;20682;-52
2022/11/11 01:53:45;;;;;;;81.60;44.47;;;;;;;8.96;100.00;100427.72;5071996;28;20580;-56
2022/11/11 01:56:12;;;;;;;72.70;42.23;;;;;;;8.92;100.00;100435.50;5071612;28;20246;-54
2022/11/11 01:58:40;;;;;;;75.37;43.13;;;;;;;8.79;100.00;100432.16;5071744;28;20639;-54
2022/11/11 02:01:09;;;;;;;76.17;44.37;;;;;;;8.77;100.00;100430.44;5071618;28;20196;-54
2022/11/11 02:03:39;;;;;;;78.63;45.33;;;;;;;8.75;100.00;100435.63;5071656;28;20250;-59
2022/11/11 02:06:06;;;;;;;71.90;43.13;;;;;;;8.77;100.00;100435.63;5071414;28;20200;-58
2022/11/11 02:08:36;;;;;;;70.60;43.53;;;;;;;8.72;100.00;100436.50;5071409;28;20203;-58
2022/11/11 02:11:08;;;;;;;67.00;40.53;;;;;;;8.76;100.00;100433.91;5071312;28;20227;-56
2022/11/11 02:16:24;;;;;;;66.50;42.10;;;;;;;8.85;100.00;100433.84;5071333;28;20683;-56
2022/11/11 02:18:51;;;;;;;65.93;41.20;;;;;;;8.87;100.00;100437.28;5071175;28;20246;-56
2022/11/11 02:21:25;;;;;;;68.40;42.07;;;;;;;8.87;100.00;100445.91;5074714;28;20223;-56
2022/11/11 02:24:03;;;;;;;74.60;42.10;;;;;;;8.90;100.00;100455.38;5091530;28;20196;-57
2022/11/11 02:26:32;;;;;;;68.53;42.57;;;;;;;8.78;100.00;100451.16;5091289;28;20668;-58
2022/11/11 02:29:00;;;;;;;74.33;43.10;;;;;;;8.74;100.00;100458.06;5091712;28;20199;-58
2022/11/11 02:31:29;;;;;;;68.33;42.53;;;;;;;8.77;100.00;100452.00;5091536;28;20229;-58
2022/11/11 02:33:56;;;;;;;70.47;42.80;;;;;;;8.73;100.00;100442.53;5091405;28;20191;-57
2022/11/11 02:36:23;;;;;;;62.53;41.57;;;;;;;8.74;100.00;100452.88;5091252;28;20195;-58
2022/11/11 02:38:50;;;;;;;79.80;44.23;;;;;;;8.67;100.00;100455.53;5091007;28;20207;-54
2022/11/11 02:44:03;;;;;;;70.03;43.00;;;;;;;8.63;100.00;100457.28;5091098;28;20707;-54
2022/11/11 02:46:30;;;;;;;74.23;43.13;;;;;;;8.68;100.00;100459.84;5090924;28;20195;-53
2022/11/11 02:48:57;;;;;;;74.63;45.17;;;;;;;8.68;100.00;100450.34;5091429;28;20199;-54
2022/11/11 02:51:24;;;;;;;76.93;45.77;;;;;;;8.53;100.00;100457.34;5090622;28;20229;-54
2022/11/11 02:53:51;;;;;;;77.00;43.73;;;;;;;8.40;100.00;100453.94;5090763;28;20200;-54
2022/11/11 02:59:00;;;;;;;72.20;44.10;;;;;;;8.38;100.00;100455.69;5090809;28;20591;-54
2022/11/11 03:01:27;;;;;;;75.57;44.83;;;;;;;8.36;100.00;100455.69;5090732;28;20192;-54
2022/11/11 03:03:54;;;;;;;81.33;44.40;;;;;;;8.20;100.00;100456.59;5090545;28;20644;-54
2022/11/11 03:06:21;;;;;;;75.83;45.97;;;;;;;8.17;100.00;100450.56;5090561;28;20201;-55
2022/11/11 03:08:47;;;;;;;89.60;47.33;;;;;;;8.06;100.00;100460.09;5090734;28;20195;-54
2022/11/11 03:11:14;;;;;;;77.63;45.27;;;;;;;7.98;100.00;100458.41;5090518;28;20648;-54
2022/11/11 03:13:43;;;;;;;77.27;45.43;;;;;;;7.92;100.00;100461.00;5090233;28;20195;-54
2022/11/11 03:17:38;;;;;;;76.37;45.07;;;;;;;7.92;100.00;100452.38;5090402;28;20598;-54
2022/11/11 03:18:55;;;;;;;79.43;44.47;;;;;;;7.91;100.00;100463.56;5090301;28;20199;-54
2022/11/11 03:21:22;;;;;;;76.47;44.70;;;;;;;7.90;100.00;100459.31;5090297;28;20195;-59
2022/11/11 03:23:49;;;;;;;74.93;44.03;;;;;;;7.96;100.00;100459.28;5090337;28;20203;-59
2022/11/11 03:26:16;;;;;;;84.07;46.10;;;;;;;7.96;100.00;100457.53;5090289;28;20199;-59
2022/11/11 03:28:44;;;;;;;80.47;46.27;;;;;;;7.94;100.00;100455.81;5090125;28;20200;-54
2022/11/11 03:31:11;;;;;;;74.93;44.50;;;;;;;7.89;100.00;100455.84;5090199;28;20716;-55
2022/11/11 03:33:38;;;;;;;75.30;44.67;;;;;;;7.76;100.00;100446.41;5089987;28;20192;-58
2022/11/11 03:36:05;;;;;;;72.70;45.53;;;;;;;7.79;100.00;100466.22;5090114;28;20206;-59
2022/11/11 03:38:31;;;;;;;77.63;46.00;;;;;;;7.83;100.00;100461.03;5089774;28;20191;-58
2022/11/11 03:40:59;;;;;;;75.90;45.30;;;;;;;7.75;100.00;100447.28;5090013;28;20244;-59
2022/11/11 03:43:28;;;;;;;89.17;48.73;;;;;;;7.81;100.00;100455.00;5089784;28;20226;-54
2022/11/11 03:45:57;;;;;;;88.43;48.00;;;;;;;7.82;100.00;100454.13;5089887;28;20195;-58
2022/11/11 03:48:26;;;;;;;89.43;49.87;;;;;;;7.90;100.00;100457.53;5089946;28;20217;-58
2022/11/11 03:50:53;;;;;;;85.30;48.03;;;;;;;7.93;100.00;100451.50;5075961;28;20608;-58
2022/11/11 03:53:21;;;;;;;80.43;49.50;;;;;;;8.00;100.00;100448.94;5069767;28;20716;-59
2022/11/11 03:55:49;;;;;;;84.00;47.83;;;;;;;8.07;100.00;100444.59;5069650;28;20240;-59
2022/11/11 03:58:16;;;;;;;77.07;46.67;;;;;;;8.09;100.00;100448.03;5069457;28;20200;-57
2022/11/11 04:00:43;;;;;;;73.03;43.53;;;;;;;8.20;100.00;100442.81;5069800;28;20214;-54
2022/11/11 04:11:32;;;;;;;73.57;42.77;;;;;;;8.27;100.00;100441.91;5088721;28;20272;-54
2022/11/11 04:16:46;;;;;;;71.53;43.80;;;;;;;8.32;100.00;100459.16;5087990;28;20194;-58
2022/11/11 04:21:59;;;;;;;77.20;43.07;;;;;;;8.19;100.00;100448.84;5069354;28;20281;-54
2022/11/11 04:27:14;;;;;;;68.13;43.50;;;;;;;8.17;100.00;100460.91;5045544;28;20613;-55
2022/11/11 04:29:41;;;;;;;71.53;42.90;;;;;;;8.09;100.00;100466.13;5079497;28;20192;-55
2022/11/11 04:34:56;;;;;;;71.03;43.50;;;;;;;8.08;100.00;100473.88;5069195;28;20257;-55
2022/11/11 04:37:24;;;;;;;81.03;44.33;;;;;;;7.97;100.00;100464.44;5072291;28;20203;-55
2022/11/11 04:42:38;;;;;;;77.50;44.00;;;;;;;7.96;100.00;100470.47;5089020;28;20191;-56
2022/11/11 04:47:55;;;;;;;71.60;42.40;;;;;;;8.09;100.00;100479.06;5080896;28;20647;-61
2022/11/11 04:50:23;;;;;;;76.97;43.60;;;;;;;8.02;100.00;100475.59;5087422;28;20230;-62
2022/11/11 04:52:51;;;;;;;72.77;43.13;;;;;;;7.98;100.00;100476.50;5092689;28;20333;-58
2022/11/11 04:58:02;;;;;;;73.60;43.13;;;;;;;8.01;100.00;100475.66;5092929;28;20615;-59
2022/11/11 05:00:29;;;;;;;71.87;41.63;;;;;;;8.05;100.00;100486.81;5092869;28;20215;-59
2022/11/11 05:11:29;;;;;;;73.13;41.40;;;;;;;8.16;100.00;100480.75;5028666;28;20611;-58
2022/11/11 05:22:19;;;;;;;72.20;43.03;;;;;;;8.16;100.00;100485.06;5091790;28;20190;-59
2022/11/11 05:27:30;;;;;;;68.73;42.63;;;;;;;8.12;100.00;100488.53;5093491;28;20197;-58
2022/11/11 05:29:57;;;;;;;79.27;43.67;;;;;;;8.08;100.00;100492.84;5093231;28;20597;-58
2022/11/11 05:32:24;;;;;;;73.07;44.33;;;;;;;8.08;100.00;100494.56;5092949;28;20226;-59
2022/11/11 05:34:52;;;;;;;70.93;42.73;;;;;;;8.17;100.00;100492.81;5093428;28;20582;-56
2022/11/11 05:37:20;;;;;;;78.30;43.87;;;;;;;8.21;100.00;100493.66;5092257;28;20229;-56
2022/11/11 05:39:47;;;;;;;73.80;44.30;;;;;;;8.31;100.00;100493.66;5092141;28;20199;-55
2022/11/11 05:42:15;;;;;;;74.27;41.23;;;;;;;8.42;100.00;100500.50;5091831;28;20637;-56
2022/11/11 05:44:42;;;;;;;88.93;44.13;;;;;;;8.53;100.00;100503.91;5089629;28;20282;-55
2022/11/11 05:47:09;;;;;;;74.83;43.97;;;;;;;8.64;100.00;100494.38;5090765;28;20665;-55
2022/11/11 05:49:36;;;;;;;71.80;43.27;;;;;;;8.72;100.00;100508.13;5092038;28;20205;-58
2022/11/11 05:52:04;;;;;;;74.23;42.90;;;;;;;8.81;100.00;100502.88;5092712;28;20245;-58
2022/11/11 05:54:32;;;;;;;68.63;41.97;;;;;;;8.85;100.00;100502.00;5092104;28;20580;-56
2022/11/11 05:57:00;;;;;;;64.70;39.67;;;;;;;8.91;100.00;100498.53;5091746;28;20210;-57
2022/11/11 05:59:27;;;;;;;72.80;40.87;;;;;;;9.05;100.00;100507.03;5092681;28;20195;-56
2022/11/11 06:01:54;;;;;;;71.30;41.80;;;;;;;9.14;100.00;100508.75;5091323;28;20584;-55
2022/11/11 06:04:21;;;;;;;69.83;40.67;;;;;;;9.27;100.00;100506.03;5091133;28;20195;-55
2022/11/11 06:06:48;;;;;;;67.33;38.13;;;;;;;9.38;100.00;100511.13;5091363;28;20525;-55
2022/11/11 06:09:15;;;;;;;70.50;37.63;;;;;;;9.59;100.00;100510.09;5091368;28;20196;-55
2022/11/11 06:11:43;;;;;;;65.83;37.90;;;;;;;9.72;100.00;100522.06;5091594;28;20229;-56
2022/11/11 06:14:10;;;;;;;70.70;36.43;;;;;;;9.92;100.00;100517.56;5092132;28;20201;-58
2022/11/11 06:16:37;;;;;;;63.40;35.60;;;;;;;10.08;100.00;100519.09;5092154;28;20324;-58
2022/11/11 06:19:04;;;;;;;69.33;36.63;;;;;;;10.18;100.00;100528.53;5091519;28;20192;-59
2022/11/11 06:21:31;;;;;;;56.77;34.53;;;;;;;10.25;100.00;100511.19;5090829;28;20207;-55
2022/11/11 06:23:58;;;;;;;58.37;37.67;;;;;;;10.43;100.00;100533.44;5091463;28;20206;-56
2022/11/11 06:26:25;;;;;;;57.53;36.20;;;;;;;10.59;100.00;100529.78;5091595;28;20639;-56
2022/11/11 06:28:56;;;;;;;59.43;35.73;;;;;;;10.65;100.00;100523.66;5089933;28;20218;-57
2022/11/11 06:31:25;;;;;;;56.20;34.57;;;;;;;10.90;100.00;100538.88;5090819;28;20223;-56
2022/11/11 06:33:52;;;;;;;64.00;36.70;;;;;;;11.07;100.00;100548.16;5090838;28;20199;-57
2022/11/11 06:36:20;;;;;;;55.93;32.53;;;;;;;11.18;100.00;100551.47;5090794;28;20215;-57
2022/11/11 06:38:48;;;;;;;55.33;31.80;;;;;;;11.30;100.00;100548.69;5090200;28;20596;-56
2022/11/11 06:41:16;;;;;;;49.23;29.73;;;;;;;11.45;100.00;100558.84;5087805;28;20296;-56
2022/11/11 06:43:43;;;;;;;48.43;31.53;;;;;;;11.59;100.00;100559.50;5090062;28;20195;-56
2022/11/11 06:46:17;;;;;;;51.07;28.83;;;;;;;11.77;100.00;100554.91;5090583;28;20608;-56
2022/11/11 06:48:45;;;;;;;58.17;28.90;;;;;;;11.79;100.00;100554.00;5089053;28;20198;-57
2022/11/11 06:51:13;;;;;;;51.00;29.77;;;;;;;11.90;100.00;100548.59;5090832;28;20191;-56
2022/11/11 06:53:40;;;;;;;51.70;31.23;;;;;;;12.06;100.00;100546.59;5091123;28;20687;-55
2022/11/11 06:56:07;;;;;;;49.70;30.90;;;;;;;12.15;100.00;100552.50;5090793;28;20209;-56
2022/11/11 06:58:35;;;;;;;51.40;28.77;;;;;;;12.22;100.00;100540.19;5090741;28;20282;-56
2022/11/11 07:01:04;;;;;;;45.70;30.10;;;;;;;12.41;100.00;100556.34;5090555;28;20196;-55
2022/11/11 07:03:33;;;;;;;40.10;28.23;;;;;;;12.53;100.00;100550.88;5090445;28;20195;-55
2022/11/11 07:06:01;;;;;;;43.53;27.67;;;;;;;12.68;100.00;100550.56;5090516;28;20286;-56
2022/11/11 07:08:28;;;;;;;47.63;28.40;;;;;;;12.81;100.00;100551.16;5090739;28;20226;-55
2022/11/11 07:10:55;;;;;;;42.23;28.00;;;;;;;12.94;100.00;100548.25;5089620;28;20195;-58
2022/11/11 07:13:23;;;;;;;45.27;27.03;;;;;;;12.99;100.00;100546.41;5089591;28;20215;-57
2022/11/11 07:15:49;;;;;;;44.60;27.93;;;;;;;13.19;100.00;100546.00;5070249;28;20196;-59
2022/11/11 07:18:16;;;;;;;40.60;27.47;;;;;;;13.39;100.00;100540.31;5070253;28;20334;-59
2022/11/11 07:20:45;;;;;;;40.20;26.23;;;;;;;13.53;100.00;100542.59;5070769;28;20215;-58
2022/11/11 07:23:12;;;;;;;48.90;26.87;;;;;;;13.77;100.00;100544.56;5070436;28;20238;-58
2022/11/11 07:25:39;;;;;;;41.67;25.57;;;;;;;13.99;99.87;100539.69;5070194;28;20228;-56
2022/11/11 07:28:06;;;;;;;40.27;26.33;;;;;;;14.27;99.14;100538.03;5069891;28;20195;-56
2022/11/11 07:30:33;;;;;;;48.23;27.33;;;;;;;14.43;98.65;100534.13;5069821;28;20200;-56
2022/11/11 07:32:59;;;;;;;40.47;26.10;;;;;;;14.66;98.18;100525.63;5069684;28;20219;-56
2022/11/11 07:35:26;;;;;;;46.07;26.17;;;;;;;14.88;97.53;100541.53;5069993;28;20196;-57
2022/11/11 07:37:55;;;;;;;38.30;24.83;;;;;;;15.06;97.11;100550.56;5069939;28;20664;-55
2022/11/11 07:40:22;;;;;;;33.37;24.77;;;;;;;15.33;97.04;100557.56;5088434;28;20225;-56
2022/11/11 07:42:48;;;;;;;37.33;25.20;;;;;;;15.57;95.58;100555.94;5089602;28;20195;-56
2022/11/11 07:45:16;;;;;;;40.57;24.03;;;;;;;15.70;97.08;100553.75;5090014;28;20195;-57
2022/11/11 07:47:44;;;;;;;39.07;22.30;;;;;;;15.83;96.76;100553.28;5090108;28;20298;-58
2022/11/11 07:50:12;;;;;;;34.33;20.57;;;;;;;16.04;95.88;100545.59;5090208;28;20191;-58
2022/11/11 07:52:39;;;;;;;32.87;21.20;;;;;;;15.99;96.11;100551.03;5090119;28;20237;-59
2022/11/11 07:55:08;;;;;;;30.50;20.90;;;;;;;16.06;96.45;100544.66;5090052;28;20206;-59
2022/11/11 07:57:35;;;;;;;38.83;22.57;;;;;;;16.07;97.29;100550.75;5089929;28;20205;-59
2022/11/11 08:00:03;;;;;;;34.73;22.63;;;;;;;16.05;97.17;100548.19;5090015;28;20199;-59
2022/11/11 08:02:30;;;;;;;30.17;21.27;;;;;;;16.13;97.74;100543.56;5090251;28;20217;-56
2022/11/11 08:04:57;;;;;;;32.27;22.97;;;;;;;16.16;97.43;100548.66;5089516;28;20198;-56
2022/11/11 08:07:24;;;;;;;32.33;21.73;;;;;;;16.24;97.73;100556.28;5089500;28;20690;-56
2022/11/11 08:09:51;;;;;;;36.50;23.37;;;;;;;16.38;97.13;100553.97;5088164;28;20195;-56
2022/11/11 08:15:04;;;;;;;31.40;21.97;;;;;;;16.59;96.24;100562.84;5089463;28;20256;-56
2022/11/11 08:17:31;;;;;;;29.60;22.57;;;;;;;16.74;95.35;100561.44;5089332;28;20241;-56
2022/11/11 08:19:58;;;;;;;33.77;22.23;;;;;;;16.81;95.05;100555.09;5089331;28;20199;-56
2022/11/11 08:22:24;;;;;;;36.50;22.83;;;;;;;16.89;95.01;100561.75;5088843;28;20721;-56
2022/11/11 08:24:51;;;;;;;33.60;22.80;;;;;;;17.03;94.31;100559.44;5092087;28;20617;-55
2022/11/11 08:27:20;;;;;;;33.33;22.23;;;;;;;17.03;93.74;100554.19;5093775;28;20209;-55
2022/11/11 08:29:47;;;;;;;33.53;21.87;;;;;;;17.08;93.17;100553.16;5093884;28;20611;-60
2022/11/11 08:32:13;;;;;;;34.13;21.57;;;;;;;17.14;92.85;100561.66;5094527;28;20206;-60
2022/11/11 08:34:40;;;;;;;30.90;21.70;;;;;;;17.22;92.52;100558.72;5094026;28;20201;-60
2022/11/11 08:37:07;;;;;;;28.87;20.67;;;;;;;17.22;92.14;100564.81;5093958;28;20195;-59
2022/11/11 08:39:34;;;;;;;27.40;20.53;;;;;;;17.12;92.34;100567.88;5093571;28;20586;-59
2022/11/11 08:42:01;;;;;;;36.03;20.83;;;;;;;16.99;93.08;100567.47;5094338;28;20282;-60
2022/11/11 08:44:29;;;;;;;35.40;21.97;;;;;;;16.93;93.36;100567.72;5092159;28;20213;-60
2022/11/11 08:46:56;;;;;;;31.53;21.67;;;;;;;16.77;93.98;100545.59;5091844;28;20388;-59
2022/11/11 08:49:23;;;;;;;34.70;22.13;;;;;;;16.89;94.69;100568.75;5092863;28;20213;-59
2022/11/11 08:51:50;;;;;;;31.17;21.37;;;;;;;16.89;94.87;100568.75;5093152;28;20199;-60
2022/11/11 08:54:17;;;;;;;37.20;23.40;;;;;;;16.85;95.47;100575.00;5093560;28;20294;-60
2022/11/11 08:56:44;;;;;;;39.00;25.47;;;;;;;16.80;95.63;100583.06;5093881;28;20296;-59
2022/11/11 08:59:11;;;;;;;35.80;23.40;;;;;;;16.79;96.15;100577.88;5092533;28;20195;-56
2022/11/11 09:01:39;;;;;;;37.73;25.60;;;;;;;16.59;97.24;100575.97;5091810;28;20199;-57
2022/11/11 09:04:07;;;;;;;42.23;23.03;;;;;;;16.52;97.28;100574.47;5092082;28;20195;-56
2022/11/11 09:06:34;;;;;;;33.37;23.73;;;;;;;16.66;97.07;100580.09;5092662;28;20210;-56
2022/11/11 09:09:00;;;;;;;31.80;22.23;;;;;;;16.65;97.42;100583.63;5092876;28;20590;-56
2022/11/11 09:11:34;;;;;;;34.20;23.37;;;;;;;16.68;98.25;100580.91;5092928;28;20686;-56
2022/11/11 09:14:01;;;;;;;36.07;24.03;;;;;;;16.70;97.15;100586.94;5092678;28;20266;-55
2022/11/11 09:16:28;;;;;;;31.80;22.33;;;;;;;16.73;97.27;100575.47;5092048;28;20583;-55
2022/11/11 09:18:57;;;;;;;47.90;30.90;;;;;;;16.78;96.84;100584.88;5091230;28;20326;-60
2022/11/11 09:21:24;;;;;;;39.63;27.23;;;;;;;16.71;97.32;100586.00;5092642;28;20587;-59
2022/11/11 09:23:50;;;;;;;29.70;22.77;;;;;;;16.80;97.36;100587.47;5092914;28;20199;-60
2022/11/11 09:26:17;;;;;;;39.03;24.40;;;;;;;16.86;96.84;100590.69;5093010;28;20219;-61
2022/11/11 09:28:45;;;;;;;36.30;25.77;;;;;;;16.95;95.81;100586.84;5092460;28;20233;-60
2022/11/11 09:31:12;;;;;;;36.27;27.70;;;;;;;16.99;95.07;100593.72;5092296;28;20199;-60
2022/11/11 09:33:39;;;;;;;38.77;26.33;;;;;;;16.99;94.36;100584.06;5092669;28;20225;-60
2022/11/11 09:36:07;;;;;;;32.80;23.90;;;;;;;17.01;93.22;100586.66;5092113;28;20195;-60
2022/11/11 09:38:34;;;;;;;39.10;26.37;;;;;;;16.93;93.05;100584.28;5092060;28;20612;-60
2022/11/11 09:41:15;;;;;;;48.33;29.57;;;;;;;16.83;93.34;100582.06;5091848;28;20639;-59
2022/11/11 09:43:52;;;;;;;50.17;28.97;;;;;;;16.76;93.31;100583.22;5092243;28;20265;-59
2022/11/11 09:46:35;;;;;;;34.87;24.23;;;;;;;16.68;93.63;100586.13;5089797;28;20587;-60
2022/11/11 09:49:38;;;;;;;37.97;25.63;;;;;;;16.63;93.94;100581.06;5091437;28;20242;-59
2022/11/11 09:52:14;;;;;;;32.70;24.07;;;;;;;16.58;94.13;100582.13;5028567;28;20284;-60
2022/11/11 09:54:48;;;;;;;29.97;19.30;;;;;;;16.41;94.92;100584.47;5082799;28;20248;-60
2022/11/11 09:57:23;;;;;;;30.80;20.47;;;;;;;16.34;95.31;100578.59;5089124;28;20208;-59
2022/11/11 09:59:52;;;;;;;25.17;19.57;;;;;;;16.32;95.14;100588.28;5090757;28;20193;-60
2022/11/11 10:02:30;;;;;;;24.37;19.40;;;;;;;16.31;95.52;100576.94;5091092;28;20205;-60
2022/11/11 10:05:02;;;;;;;26.27;18.70;;;;;;;16.22;95.38;100576.41;5089315;28;20234;-59
2022/11/11 10:07:38;;;;;;;28.60;18.83;;;;;;;16.14;96.28;100579.28;5090902;28;20210;-60
2022/11/11 10:10:15;;;;;;;33.27;19.50;;;;;;;16.13;96.51;100568.88;5088792;28;20197;-54
2022/11/11 10:12:49;;;;;;;26.30;18.37;;;;;;;16.04;97.41;100567.41;5088298;28;20297;-54
2022/11/11 10:15:17;;;;;;;23.57;18.20;;;;;;;16.05;97.80;100573.50;5087388;28;20191;-54
2022/11/11 10:18:03;;;;;;;25.17;17.73;;;;;;;15.97;98.97;100581.63;5090697;28;20713;-55
2022/11/11 10:20:34;;;;;;;23.93;17.60;;;;;;;16.01;98.80;100579.78;5090957;28;20676;-60
2022/11/11 10:23:10;;;;;;;29.77;17.20;;;;;;;15.98;99.21;100581.59;5090579;28;20195;-61
2022/11/11 10:25:43;;;;;;;29.27;17.33;;;;;;;15.87;99.85;100583.72;5090408;28;20702;-59
2022/11/11 10:28:16;;;;;;;24.97;17.30;;;;;;;15.80;100.00;100581.38;5090938;28;20743;-59
2022/11/11 10:30:44;;;;;;;28.90;17.53;;;;;;;15.75;100.00;100588.50;5090838;28;20209;-60
2022/11/11 10:33:16;;;;;;;22.47;17.57;;;;;;;15.65;100.00;100584.47;5090544;28;20230;-60
2022/11/11 10:35:45;;;;;;;24.37;18.43;;;;;;;15.60;100.00;100584.59;5090631;28;20195;-59
2022/11/11 10:38:27;;;;;;;30.67;18.13;;;;;;;15.59;100.00;100578.53;5090739;28;20698;-60
2022/11/11 10:40:56;;;;;;;27.53;17.83;;;;;;;15.59;100.00;100582.91;5090441;28;20317;-60
2022/11/11 10:43:25;;;;;;;26.50;18.40;;;;;;;15.64;100.00;100583.63;5091044;28;20202;-59
2022/11/11 10:46:04;;;;;;;32.63;24.00;;;;;;;15.61;100.00;100583.72;5091304;28;20206;-59
2022/11/11 10:48:38;;;;;;;26.77;17.80;;;;;;;15.54;100.00;100580.44;5090175;28;20203;-59
2022/11/11 10:51:07;;;;;;;24.90;17.83;;;;;;;15.49;100.00;100581.44;5091492;28;20195;-59
2022/11/11 10:53:42;;;;;;;25.33;17.77;;;;;;;15.50;100.00;100589.25;5091356;28;20309;-59
2022/11/11 10:56:17;;;;;;;26.27;17.23;;;;;;;15.49;100.00;100577.06;5091151;28;20199;-59
2022/11/11 10:58:52;;;;;;;26.73;18.07;;;;;;;15.44;100.00;100583.38;5091572;28;20237;-59
2022/11/11 11:01:26;;;;;;;26.70;16.40;;;;;;;15.46;100.00;100577.16;5091615;28;20195;-58
2022/11/11 11:03:59;;;;;;;21.73;16.83;;;;;;;15.49;100.00;100581.44;5091631;28;20652;-58
2022/11/11 11:06:30;;;;;;;27.63;17.13;;;;;;;15.52;100.00;100583.97;5091035;28;20198;-60
2022/11/11 11:09:06;;;;;;;31.77;20.13;;;;;;;15.56;100.00;100577.78;5091215;28;20712;-60
2022/11/11 11:11:37;;;;;;;25.70;17.73;;;;;;;15.57;100.00;100580.34;5092369;28;20191;-57
2022/11/11 11:14:10;;;;;;;39.20;27.90;;;;;;;15.54;100.00;100580.44;5091879;28;20219;-58
2022/11/11 11:16:44;;;;;;;38.10;26.13;;;;;;;15.41;100.00;100573.84;5091651;28;20198;-57
2022/11/11 11:19:16;;;;;;;51.30;31.27;;;;;;;15.44;100.00;100567.69;5089175;28;20203;-59
2022/11/11 11:21:51;;;;;;;28.63;21.97;;;;;;;15.38;100.00;100573.94;5089845;28;20208;-55
2022/11/11 11:24:24;;;;;;;33.33;23.43;;;;;;;15.31;100.00;100576.81;5087263;28;20186;-55
2022/11/11 11:26:53;;;;;;;33.00;19.77;;;;;;;15.32;100.00;100579.38;5086434;28;20197;-55
2022/11/11 11:29:28;;;;;;;24.70;18.63;;;;;;;15.30;100.00;100569.88;5088978;28;20196;-55
2022/11/11 11:31:56;;;;;;;28.67;18.60;;;;;;;15.26;100.00;100576.94;5086888;28;20194;-55
2022/11/11 11:34:43;;;;;;;25.43;18.83;;;;;;;15.30;100.00;100568.09;5088788;28;20759;-54
2022/11/11 11:37:10;;;;;;;24.50;18.77;;;;;;;15.26;100.00;100558.63;5088853;28;20206;-55
2022/11/11 11:39:40;;;;;;;20.57;15.53;;;;;;;15.13;100.00;100568.63;5088785;28;20290;-56
2022/11/11 11:42:07;;;;;;;24.67;18.00;;;;;;;15.13;100.00;100560.75;5088569;28;20194;-55
2022/11/11 11:44:35;;;;;;;22.43;16.97;;;;;;;15.08;100.00;100553.97;5088684;28;20615;-55
2022/11/11 11:47:32;;;;;;;27.47;21.87;;;;;;;15.10;100.00;100553.03;5088574;28;20191;-59
2022/11/11 11:50:17;;;;;;;23.60;16.77;;;;;;;15.14;100.00;100544.19;5085787;28;20187;-58
2022/11/11 11:52:56;;;;;;;28.03;18.00;;;;;;;15.21;100.00;100555.31;5086369;28;20234;-59
2022/11/11 11:55:28;;;;;;;23.53;17.37;;;;;;;15.19;100.00;100544.91;5090360;28;20226;-59
2022/11/11 11:58:09;;;;;;;24.50;17.27;;;;;;;15.20;100.00;100548.38;5079473;28;20201;-60
2022/11/11 12:00:43;;;;;;;26.37;18.13;;;;;;;15.18;100.00;100547.56;5088149;28;20195;-59
2022/11/11 12:03:38;;;;;;;22.53;17.60;;;;;;;15.24;100.00;100550.81;5089791;28;20194;-60
2022/11/11 12:06:14;;;;;;;26.43;17.57;;;;;;;15.30;100.00;100556.78;5086643;28;20180;-59
2022/11/11 12:08:54;;;;;;;24.13;17.90;;;;;;;15.36;100.00;100546.09;5089981;28;20199;-55
2022/11/11 12:11:29;;;;;;;34.53;25.00;;;;;;;15.36;100.00;100546.09;5087505;28;20195;-59
2022/11/11 12:14:16;;;;;;;26.97;19.93;;;;;;;15.40;100.00;100543.34;5090639;28;20206;-59
2022/11/11 12:16:50;;;;;;;28.40;19.03;;;;;;;15.39;100.00;100540.78;5090112;28;20302;-59
2022/11/11 12:19:42;;;;;;;22.87;16.70;;;;;;;15.45;100.00;100538.00;5090913;28;20218;-59
2022/11/11 12:22:25;;;;;;;28.90;18.53;;;;;;;15.51;100.00;100540.41;5090101;28;20183;-59
2022/11/11 12:25:02;;;;;;;21.20;17.10;;;;;;;15.42;100.00;100532.84;5086807;28;20556;-60
2022/11/11 12:27:37;;;;;;;22.63;17.00;;;;;;;15.40;100.00;100532.03;5088550;28;20195;-60
2022/11/11 12:30:08;;;;;;;21.47;16.43;;;;;;;15.42;100.00;100530.22;5087549;28;20504;-60
2022/11/11 12:33:06;;;;;;;27.47;19.03;;;;;;;15.46;100.00;100534.47;5086449;28;20209;-60
2022/11/11 12:35:45;;;;;;;25.43;17.50;;;;;;;15.46;100.00;100529.25;5083704;28;20192;-60